createdAt,value
2022-09-07T00:02:21.912Z,100499.80
2022-09-07T00:04:51.928Z,100495.20
2022-09-07T00:07:22.281Z,100494.00
2022-09-07T00:09:52.680Z,100493.00
2022-09-07T00:12:22.808Z,100493.20
2022-09-07T00:14:53.330Z,100491.80
2022-09-07T00:17:23.452Z,100496.00
2022-09-07T00:19:54.801Z,100493.60
2022-09-07T00:22:25.112Z,100492.80
2022-09-07T00:24:55.219Z,100495.00
2022-09-07T00:27:25.480Z,100488.80
2022-09-07T00:29:55.603Z,100492.20
2022-09-07T00:32:26.036Z,100488.00
2022-09-07T00:34:56.140Z,100484.40
2022-09-07T00:37:26.508Z,100485.60
2022-09-07T00:39:56.835Z,100497.00
2022-09-07T00:42:27.084Z,100487.80
2022-09-07T00:45:11.913Z,100487.20
2022-09-07T00:47:54.705Z,100480.60
2022-09-07T00:50:31.749Z,100477.60
2022-09-07T00:53:10.716Z,100479.00
2022-09-07T00:55:45.362Z,100477.40
2022-09-07T00:58:16.319Z,100475.00
2022-09-07T01:00:48.745Z,100475.80
2022-09-07T01:03:25.873Z,100473.60
2022-09-07T01:06:03.925Z,100474.60
2022-09-07T01:08:35.807Z,100472.60
2022-09-07T01:11:06.494Z,100476.00
2022-09-07T01:13:38.823Z,100473.20
2022-09-07T01:16:23.376Z,100473.00
2022-09-07T01:19:17.967Z,100467.60
2022-09-07T01:22:08.566Z,100466.20
2022-09-07T01:24:54.108Z,100468.60
2022-09-07T01:28:03.225Z,100463.40
2022-09-07T01:30:38.238Z,100462.60
2022-09-07T01:33:37.794Z,100470.40
2022-09-07T01:36:22.315Z,100466.60
2022-09-07T01:38:58.925Z,100466.20
2022-09-07T01:41:40.028Z,100460.80
2022-09-07T01:44:17.532Z,100459.60
2022-09-07T01:47:01.435Z,100453.00
2022-09-07T01:49:37.963Z,100456.40
2022-09-07T01:52:15.237Z,100456.80
2022-09-07T01:54:52.062Z,100458.40
2022-09-07T01:57:33.518Z,100454.80
2022-09-07T02:00:10.938Z,100458.20
2022-09-07T02:02:50.212Z,100452.60
2022-09-07T02:05:27.164Z,100444.40
2022-09-07T02:08:06.256Z,100443.60
2022-09-07T02:10:43.223Z,100445.60
2022-09-07T02:13:18.443Z,100446.60
2022-09-07T02:15:57.400Z,100446.20
2022-09-07T02:18:34.145Z,100441.00
2022-09-07T02:21:08.450Z,100437.80
2022-09-07T02:23:47.174Z,100437.60
2022-09-07T02:26:21.601Z,100433.60
2022-09-07T02:28:51.915Z,100435.40
2022-09-07T02:31:22.344Z,100430.20
2022-09-07T02:33:52.369Z,100432.00
2022-09-07T02:36:28.469Z,100433.80
2022-09-07T02:38:58.565Z,100428.00
2022-09-07T02:41:35.838Z,100429.40
2022-09-07T02:44:11.986Z,100433.00
2022-09-07T02:47:06.161Z,100434.40
2022-09-07T02:50:03.823Z,100436.00
2022-09-07T02:52:47.148Z,100428.00
2022-09-07T02:55:32.018Z,100423.20
2022-09-07T02:58:19.235Z,100430.00
2022-09-07T03:00:58.631Z,100437.00
2022-09-07T03:03:42.450Z,100442.00
2022-09-07T03:06:23.721Z,100434.00
2022-09-07T03:08:58.066Z,100428.20
2022-09-07T03:11:29.483Z,100422.80
2022-09-07T03:14:17.876Z,100419.00
2022-09-07T03:16:50.146Z,100427.00
2022-09-07T03:19:20.274Z,100423.00
2022-09-07T03:21:49.964Z,100423.40
2022-09-07T03:24:19.753Z,100428.20
2022-09-07T03:26:50.755Z,100425.40
2022-09-07T03:29:20.956Z,100421.60
2022-09-07T03:31:50.912Z,100422.40
2022-09-07T03:34:20.615Z,100415.60
2022-09-07T03:36:50.346Z,100422.80
2022-09-07T03:39:23.105Z,100418.20
2022-09-07T03:41:52.914Z,100419.40
2022-09-07T03:44:22.691Z,100424.00
2022-09-07T03:46:52.558Z,100427.60
2022-09-07T03:49:22.374Z,100423.00
2022-09-07T03:51:52.200Z,100425.40
2022-09-07T03:54:22.218Z,100421.20
2022-09-07T03:56:52.088Z,100423.40
2022-09-07T03:59:22.108Z,100421.60
2022-09-07T04:01:52.479Z,100426.20
2022-09-07T04:04:22.370Z,100422.80
2022-09-07T04:06:52.121Z,100419.80
2022-09-07T04:09:22.013Z,100420.20
2022-09-07T04:11:52.154Z,100420.60
2022-09-07T04:14:22.395Z,100415.60
2022-09-07T04:16:52.264Z,100412.20
2022-09-07T04:19:22.021Z,100411.80
2022-09-07T04:21:51.963Z,100418.60
2022-09-07T04:24:22.188Z,100415.40
2022-09-07T04:26:52.235Z,100414.80
2022-09-07T04:29:22.086Z,100411.20
2022-09-07T04:31:51.919Z,100411.00
2022-09-07T04:34:21.629Z,100409.40
2022-09-07T04:36:51.424Z,100409.40
2022-09-07T04:39:21.203Z,100403.60
2022-09-07T04:41:50.972Z,100411.00
2022-09-07T04:44:20.908Z,100407.40
2022-09-07T04:46:50.842Z,100409.00
2022-09-07T04:49:20.761Z,100410.40
2022-09-07T04:51:50.797Z,100406.00
2022-09-07T04:54:20.842Z,100410.40
2022-09-07T04:56:50.830Z,100412.00
2022-09-07T04:59:21.406Z,100409.00
2022-09-07T05:01:51.246Z,100416.20
2022-09-07T05:04:21.057Z,100415.00
2022-09-07T05:06:52.615Z,100417.40
2022-09-07T05:09:22.496Z,100411.80
2022-09-07T05:11:52.969Z,100411.60
2022-09-07T05:14:22.985Z,100412.20
2022-09-07T05:16:52.840Z,100405.80
2022-09-07T05:19:23.081Z,100401.20
2022-09-07T05:21:52.911Z,100397.20
2022-09-07T05:24:22.879Z,100397.40
2022-09-07T05:26:53.646Z,100398.00
2022-09-07T05:32:14.267Z,100401.40
2022-09-07T05:34:44.383Z,100401.80
2022-09-07T05:37:14.535Z,100407.00
2022-09-07T05:39:44.418Z,100403.20
2022-09-07T05:42:14.681Z,100405.80
2022-09-07T05:44:45.095Z,100408.80
2022-09-07T05:47:15.629Z,100407.60
2022-09-07T05:49:45.505Z,100410.20
2022-09-07T05:52:16.039Z,100414.40
2022-09-07T05:54:46.696Z,100403.60
2022-09-07T05:57:16.687Z,100404.60
2022-09-07T05:59:46.581Z,100408.00
2022-09-07T06:02:16.969Z,100405.40
2022-09-07T06:04:47.498Z,100402.00
2022-09-07T06:07:22.065Z,100397.40
2022-09-07T06:12:49.024Z,100394.20
2022-09-07T06:15:19.525Z,100392.20
2022-09-07T06:17:49.294Z,100394.00
2022-09-07T06:20:19.324Z,100391.20
2022-09-07T06:22:49.150Z,100392.80
2022-09-07T06:25:19.276Z,100398.00
2022-09-07T06:27:51.439Z,100405.00
2022-09-07T06:30:21.406Z,100406.40
2022-09-07T06:32:51.162Z,100403.60
2022-09-07T06:35:20.983Z,100406.60
2022-09-07T06:37:50.900Z,100407.40
2022-09-07T06:40:20.783Z,100405.40
2022-09-07T06:42:50.500Z,100400.00
2022-09-07T06:45:20.298Z,100399.60
2022-09-07T06:47:53.087Z,100398.20
2022-09-07T06:50:22.934Z,100401.40
2022-09-07T06:55:46.301Z,100392.60
2022-09-07T06:58:16.214Z,100391.60
2022-09-07T07:00:46.992Z,100395.20
2022-09-07T07:03:17.670Z,100391.60
2022-09-07T07:05:53.553Z,100383.00
2022-09-07T07:08:25.498Z,100387.20
2022-09-07T07:10:56.293Z,100388.80
2022-09-07T07:13:27.691Z,100385.80
2022-09-07T07:16:05.631Z,100384.00
2022-09-07T07:18:37.203Z,100383.20
2022-09-07T07:21:11.103Z,100378.80
2022-09-07T07:23:41.875Z,100377.40
2022-09-07T07:26:16.367Z,100382.20
2022-09-07T07:31:32.620Z,100375.20
2022-09-07T07:34:03.167Z,100369.60
2022-09-07T07:36:36.975Z,100370.00
2022-09-07T07:39:07.042Z,100366.00
2022-09-07T07:44:22.823Z,100360.80
2022-09-07T07:46:53.250Z,100353.40
2022-09-07T07:49:23.543Z,100355.00
2022-09-07T07:54:45.685Z,100350.60
2022-09-07T07:57:18.390Z,100359.60
2022-09-07T07:59:48.462Z,100361.60
2022-09-07T08:02:18.829Z,100362.00
2022-09-07T08:04:48.725Z,100364.60
2022-09-07T08:07:19.452Z,100359.60
2022-09-07T08:09:55.241Z,100366.80
2022-09-07T08:12:29.554Z,100372.20
2022-09-07T08:14:59.669Z,100365.40
2022-09-07T08:17:34.391Z,100363.00
2022-09-07T08:20:06.332Z,100362.00
2022-09-07T08:22:39.238Z,100361.00
2022-09-07T08:25:10.878Z,100355.20
2022-09-07T08:27:40.960Z,100353.00
2022-09-07T08:30:12.926Z,100345.80
2022-09-07T08:32:42.695Z,100341.60
2022-09-07T08:35:12.902Z,100341.80
2022-09-07T08:37:42.673Z,100337.00
2022-09-07T08:40:17.731Z,100336.00
2022-09-07T08:43:06.076Z,100338.20
2022-09-07T08:45:47.443Z,100341.00
2022-09-07T08:48:23.756Z,100338.60
2022-09-07T08:51:03.254Z,100340.20
2022-09-07T08:53:36.236Z,100336.00
2022-09-07T08:56:13.020Z,100335.20
2022-09-07T08:58:49.544Z,100326.00
2022-09-07T09:01:31.832Z,100315.60
2022-09-07T09:04:20.559Z,100311.40
2022-09-07T09:07:10.153Z,100310.60
2022-09-07T09:10:04.044Z,100304.20
2022-09-07T09:13:01.229Z,100300.40
2022-09-07T09:15:51.968Z,100296.80
2022-09-07T09:18:42.984Z,100297.00
2022-09-07T09:21:18.158Z,100292.80
2022-09-07T09:23:53.775Z,100295.00
2022-09-07T09:26:27.408Z,100296.60
2022-09-07T09:28:57.309Z,100289.80
2022-09-07T09:31:35.410Z,100282.60
2022-09-07T09:34:15.414Z,100278.00
2022-09-07T09:36:49.453Z,100280.40
2022-09-07T09:39:31.934Z,100284.20
2022-09-07T09:42:21.439Z,100281.00
2022-09-07T09:44:53.175Z,100286.40
2022-09-07T09:47:31.821Z,100281.80
2022-09-07T09:50:07.542Z,100281.00
2022-09-07T09:52:47.915Z,100276.40
2022-09-07T09:55:34.990Z,100267.20
2022-09-07T10:01:33.312Z,100251.00
2022-09-07T10:04:29.249Z,100242.80
2022-09-07T10:07:14.545Z,100235.20
2022-09-07T10:09:52.489Z,100240.20
2022-09-07T10:12:31.679Z,100240.80
2022-09-07T10:15:06.083Z,100246.20
2022-09-07T10:17:40.840Z,100245.00
2022-09-07T10:20:36.492Z,100248.20
2022-09-07T10:23:19.221Z,100253.00
2022-09-07T10:25:48.990Z,100247.20
2022-09-07T10:28:24.252Z,100248.40
2022-09-07T10:31:18.531Z,100245.60
2022-09-07T10:37:01.373Z,100246.60
2022-09-07T10:39:41.230Z,100241.80
2022-09-07T10:42:29.027Z,100241.00
2022-09-07T10:45:18.004Z,100238.80
2022-09-07T10:48:03.111Z,100234.80
2022-09-07T10:50:42.525Z,100237.20
2022-09-07T10:53:41.663Z,100234.20
2022-09-07T10:56:18.354Z,100238.00
2022-09-07T10:59:11.856Z,100232.40
2022-09-07T11:01:55.666Z,100232.60
2022-09-07T11:04:47.495Z,100235.40
2022-09-07T11:07:37.527Z,100235.00
2022-09-07T11:10:24.642Z,100233.80
2022-09-07T11:13:00.254Z,100231.00
2022-09-07T11:15:35.499Z,100232.40
2022-09-07T11:18:13.910Z,100226.40
2022-09-07T11:20:54.581Z,100225.20
2022-09-07T11:23:32.369Z,100216.60
2022-09-07T11:26:10.805Z,100213.00
2022-09-07T11:31:55.856Z,100216.20
2022-09-07T11:34:35.801Z,100215.60
2022-09-07T11:37:18.700Z,100212.60
2022-09-07T11:39:58.022Z,100220.20
2022-09-07T11:42:46.044Z,100213.20
2022-09-07T11:45:23.003Z,100212.20
2022-09-07T11:48:01.127Z,100204.60
2022-09-07T11:50:37.913Z,100211.60
2022-09-07T11:53:17.412Z,100207.80
2022-09-07T11:55:54.287Z,100207.60
2022-09-07T11:59:18.103Z,100207.60
2022-09-07T12:02:05.838Z,100199.00
2022-09-07T12:05:08.097Z,100189.60
2022-09-07T12:07:59.407Z,100194.00
2022-09-07T12:11:09.713Z,100189.00
2022-09-07T12:14:15.256Z,100186.80
2022-09-07T12:17:30.539Z,100177.80
2022-09-07T12:20:17.220Z,100175.80
2022-09-07T12:23:04.578Z,100175.60
2022-09-07T12:25:37.106Z,100176.60
2022-09-07T12:28:17.571Z,100175.80
2022-09-07T12:30:59.146Z,100170.80
2022-09-07T12:33:36.154Z,100168.40
2022-09-07T12:36:50.364Z,100162.80
2022-09-07T12:39:28.899Z,100167.80
2022-09-07T12:42:32.959Z,100166.60
2022-09-07T12:45:50.220Z,100158.40
2022-09-07T12:48:38.214Z,100155.80
2022-09-07T13:07:35.472Z,100143.60
2022-09-07T13:10:26.411Z,100144.40
2022-09-07T13:13:04.290Z,100142.20
2022-09-07T13:15:43.173Z,100131.40
2022-09-07T13:18:41.632Z,100128.40
2022-09-07T13:21:43.044Z,100120.80
2022-09-07T13:24:56.269Z,100115.40
2022-09-07T13:27:50.379Z,100121.20
2022-09-07T13:30:34.538Z,100115.80
2022-09-07T13:33:53.994Z,100113.00
2022-09-07T13:36:51.158Z,100111.20
2022-09-07T13:39:22.895Z,100113.60
2022-09-07T13:41:58.154Z,100109.00
2022-09-07T13:44:33.982Z,100105.00
2022-09-07T13:47:20.493Z,100105.60
2022-09-07T13:50:04.737Z,100105.00
2022-09-07T13:52:53.523Z,100105.60
2022-09-07T13:55:34.397Z,100105.00
2022-09-07T13:58:32.332Z,100106.60
2022-09-07T14:01:13.948Z,100106.00
2022-09-07T14:03:50.755Z,100100.20
2022-09-07T14:06:44.958Z,100105.40
2022-09-07T14:09:20.318Z,100100.40
2022-09-07T14:12:00.169Z,100101.20
2022-09-07T14:14:32.584Z,100102.60
2022-09-07T14:17:11.311Z,100103.80
2022-09-07T14:19:46.035Z,100099.80
2022-09-07T14:22:23.694Z,100093.80
2022-09-07T14:24:58.351Z,100091.60
2022-09-07T14:27:35.413Z,100088.20
2022-09-07T14:30:23.851Z,100082.00
2022-09-07T14:32:58.098Z,100082.60
2022-09-07T14:35:34.735Z,100083.20
2022-09-07T14:41:20.130Z,100079.60
2022-09-07T14:43:59.473Z,100068.60
2022-09-07T14:46:33.485Z,100077.00
2022-09-07T14:49:18.189Z,100073.20
2022-09-07T14:51:49.418Z,100071.80
2022-09-07T14:54:25.377Z,100070.00
2022-09-07T14:57:29.845Z,100069.80
2022-09-07T15:00:20.102Z,100065.40
2022-09-07T15:02:50.412Z,100063.20
2022-09-07T15:05:26.616Z,100060.80
2022-09-07T15:07:59.366Z,100059.00
2022-09-07T15:10:36.004Z,100059.20
2022-09-07T15:13:27.313Z,100058.00
2022-09-07T15:16:03.340Z,100054.20
2022-09-07T15:18:53.868Z,100056.00
2022-09-07T15:21:29.761Z,100049.00
2022-09-07T15:24:01.747Z,100053.80
2022-09-07T15:29:30.433Z,100052.00
2022-09-07T15:32:04.862Z,100049.00
2022-09-07T15:34:35.561Z,100046.40
2022-09-07T15:38:01.156Z,100046.20
2022-09-07T15:39:56.403Z,100039.60
2022-09-07T15:45:18.480Z,100038.20
2022-09-07T15:47:52.470Z,100036.60
2022-09-07T15:50:23.606Z,100037.40
2022-09-07T15:52:54.534Z,100039.40
2022-09-07T15:55:24.787Z,100037.40
2022-09-07T15:58:10.587Z,100034.20
2022-09-07T16:00:41.273Z,100032.60
2022-09-07T16:03:12.480Z,100036.40
2022-09-07T16:05:44.529Z,100048.00
2022-09-07T16:11:18.462Z,100043.80
2022-09-07T16:13:55.333Z,100046.00
2022-09-07T16:17:25.722Z,100045.40
2022-09-07T16:19:20.589Z,100042.80
2022-09-07T16:21:51.633Z,100040.60
2022-09-07T16:24:21.837Z,100046.80
2022-09-07T16:26:52.262Z,100043.20
2022-09-07T16:29:22.606Z,100042.60
2022-09-07T16:34:44.930Z,100027.20
2022-09-07T16:37:16.295Z,100028.80
2022-09-07T16:39:46.501Z,100030.40
2022-09-07T16:42:17.280Z,100027.80
2022-09-07T16:44:48.799Z,100020.60
2022-09-07T16:47:19.047Z,100020.40
2022-09-07T16:49:49.753Z,100019.40
2022-09-07T16:52:20.892Z,100022.60
2022-09-07T16:54:53.832Z,100017.00
2022-09-07T16:57:24.721Z,100018.40
2022-09-07T16:59:56.141Z,100011.40
2022-09-07T17:02:26.489Z,100013.00
2022-09-07T17:04:56.940Z,100011.60
2022-09-07T17:07:27.209Z,100016.00
2022-09-07T17:09:57.305Z,100018.40
2022-09-07T17:12:27.656Z,100020.60
2022-09-07T17:14:57.563Z,100019.00
2022-09-07T17:17:27.372Z,100018.00
2022-09-07T17:19:58.660Z,100017.40
2022-09-07T17:22:29.551Z,100019.80
2022-09-07T17:24:59.541Z,100026.00
2022-09-07T17:27:29.505Z,100024.40
2022-09-07T17:29:59.604Z,100031.80
2022-09-07T17:32:32.284Z,100025.80
2022-09-07T17:35:02.519Z,100034.60
2022-09-07T17:37:32.640Z,100032.60
2022-09-07T17:40:05.776Z,100037.00
2022-09-07T17:45:27.811Z,100043.20
2022-09-07T17:47:59.258Z,100045.60
2022-09-07T17:50:31.784Z,100046.00
2022-09-07T17:53:02.054Z,100044.80
2022-09-07T17:55:32.464Z,100043.60
2022-09-07T17:58:04.660Z,100037.60
2022-09-07T18:00:36.313Z,100040.00
2022-09-07T18:03:07.337Z,100039.40
2022-09-07T18:05:37.558Z,100039.80
2022-09-07T18:08:10.200Z,100048.20
2022-09-07T18:13:36.319Z,100061.40
2022-09-07T18:16:15.672Z,100066.20
2022-09-07T18:18:48.699Z,100062.00
2022-09-07T18:21:21.995Z,100063.60
2022-09-07T18:23:56.575Z,100063.80
2022-09-07T18:26:27.988Z,100063.20
2022-09-07T18:29:12.968Z,100060.00
2022-09-07T18:31:51.039Z,100060.00
2022-09-07T18:34:24.146Z,100057.80
2022-09-07T18:36:55.180Z,100056.60
2022-09-07T18:39:26.424Z,100051.40
2022-09-07T18:41:56.941Z,100044.60
2022-09-07T18:47:23.162Z,100051.20
2022-09-07T18:49:59.097Z,100059.60
2022-09-07T18:55:21.103Z,100055.40
2022-09-07T18:57:51.966Z,100054.40
2022-09-07T19:00:22.594Z,100055.00
2022-09-07T19:02:53.139Z,100052.60
2022-09-07T19:08:14.488Z,100053.20
2022-09-07T19:10:44.815Z,100056.60
2022-09-07T19:13:15.119Z,100054.00
2022-09-07T19:15:45.182Z,100052.20
2022-09-07T19:18:15.262Z,100047.80
2022-09-07T19:20:45.336Z,100044.40
2022-09-07T19:23:16.101Z,100040.40
2022-09-07T19:25:46.654Z,100045.20
2022-09-07T19:28:18.503Z,100048.80
2022-09-07T19:30:48.697Z,100046.40
2022-09-07T19:33:18.973Z,100038.40
2022-09-07T19:35:49.172Z,100030.00
2022-09-07T19:38:19.795Z,100024.40
2022-09-07T19:40:58.000Z,100022.40
2022-09-07T19:43:32.086Z,100019.80
2022-09-07T19:46:03.463Z,100013.20
2022-09-07T19:48:33.510Z,100013.00
2022-09-07T19:51:05.121Z,100011.20
2022-09-07T19:53:36.809Z,100009.20
2022-09-07T19:56:09.685Z,100007.60
2022-09-07T19:58:43.183Z,100007.60
2022-09-07T20:01:16.810Z,100006.60
2022-09-07T20:03:55.569Z,100005.80
2022-09-07T20:06:28.416Z,100001.60
2022-09-07T20:08:59.504Z,100001.20
2022-09-07T20:11:31.261Z,99998.40
2022-09-07T20:14:01.623Z,100002.80
2022-09-07T20:16:32.179Z,100004.00
2022-09-07T20:19:02.500Z,100008.00
2022-09-07T20:21:33.063Z,100012.80
2022-09-07T20:24:04.031Z,100009.40
2022-09-07T20:26:34.159Z,100007.60
2022-09-07T20:29:26.568Z,100010.00
2022-09-07T20:31:54.082Z,100004.40
2022-09-07T20:34:26.929Z,100010.80
2022-09-07T20:36:57.454Z,100004.40
2022-09-07T20:39:27.465Z,100001.00
2022-09-07T20:41:57.377Z,99996.00
2022-09-07T20:44:27.418Z,100001.20
2022-09-07T20:46:57.316Z,100002.20
2022-09-07T20:49:27.222Z,99998.00
2022-09-07T20:51:56.982Z,99996.20
2022-09-07T20:54:26.774Z,99994.20
2022-09-07T20:56:58.402Z,99995.80
2022-09-07T20:59:30.729Z,99990.60
2022-09-07T21:02:00.555Z,99997.60
2022-09-07T21:04:30.339Z,100002.80
2022-09-07T21:07:00.355Z,100004.40
2022-09-07T21:09:31.084Z,100008.00
2022-09-07T21:12:00.769Z,100002.00
2022-09-07T21:14:30.541Z,100001.60
2022-09-07T21:17:00.267Z,100001.80
2022-09-07T21:19:30.023Z,100007.20
2022-09-07T21:21:59.656Z,100006.40
2022-09-07T21:24:29.568Z,100000.20
2022-09-07T21:26:59.322Z,100000.80
2022-09-07T21:29:28.992Z,100003.40
2022-09-07T21:31:58.681Z,99997.40
2022-09-07T21:34:28.547Z,99997.80
2022-09-07T21:36:58.207Z,99999.80
2022-09-07T21:39:28.116Z,99998.60
2022-09-07T21:41:57.917Z,100001.00
2022-09-07T21:44:27.699Z,100000.20
2022-09-07T21:46:57.727Z,100002.40
2022-09-07T21:49:27.449Z,100001.40
2022-09-07T21:51:57.259Z,100008.80
2022-09-07T21:54:27.078Z,100010.60
2022-09-07T21:56:56.850Z,100013.20
2022-09-07T21:59:26.575Z,100018.40
2022-09-07T22:01:56.351Z,100017.20
2022-09-07T22:04:26.202Z,100012.40
2022-09-07T22:06:56.008Z,100009.40
2022-09-07T22:09:25.777Z,100008.00
2022-09-07T22:11:55.479Z,100011.00
2022-09-07T22:14:25.401Z,100012.20
2022-09-07T22:16:55.612Z,100012.60
2022-09-07T22:19:25.416Z,100010.80
2022-09-07T22:21:55.097Z,100007.60
2022-09-07T22:24:24.703Z,100008.00
2022-09-07T22:26:54.452Z,100008.80
2022-09-07T22:29:24.166Z,100000.40
2022-09-07T22:31:53.832Z,99998.20
2022-09-07T22:34:23.595Z,99994.60
2022-09-07T22:36:53.388Z,99994.60
2022-09-07T22:39:23.133Z,99989.00
2022-09-07T22:41:52.945Z,99992.80
2022-09-07T22:44:24.039Z,99987.00
2022-09-07T22:46:53.817Z,99977.80
2022-09-07T22:49:23.701Z,99977.40
2022-09-07T22:51:53.422Z,99978.80
2022-09-07T22:54:23.443Z,99977.00
2022-09-07T22:56:53.215Z,99977.60
2022-09-07T22:59:22.828Z,99974.60
2022-09-07T23:01:52.555Z,99967.80
2022-09-07T23:04:22.293Z,99967.80
2022-09-07T23:06:52.064Z,99962.80
2022-09-07T23:09:21.741Z,99959.00
2022-09-07T23:11:51.500Z,99957.00
2022-09-07T23:14:23.162Z,99955.00
2022-09-07T23:16:53.254Z,99953.60
2022-09-07T23:19:23.241Z,99945.80
2022-09-07T23:21:52.925Z,99945.00
2022-09-07T23:24:22.688Z,99943.40
2022-09-07T23:26:52.401Z,99941.80
2022-09-07T23:29:22.146Z,99945.40
2022-09-07T23:31:51.890Z,99947.40
2022-09-07T23:34:21.647Z,99946.40
2022-09-07T23:36:51.542Z,99946.40
2022-09-07T23:39:21.883Z,99941.60
2022-09-07T23:41:51.559Z,99937.00
2022-09-07T23:44:21.268Z,99933.60
2022-09-07T23:46:51.055Z,99934.20
2022-09-07T23:49:20.939Z,99923.40
2022-09-07T23:51:54.412Z,99921.80
2022-09-07T23:54:24.227Z,99920.40
2022-09-07T23:56:54.356Z,99922.40
2022-09-07T23:59:24.206Z,99921.80
